Two Harbors, Minnesota
Current Conditions -  °F | °C
As of 1:14 AM on Saturday 25 Oct 2014 (Local Time) from KTWM Reporting Station
Clear Clear  
Wind Chill: 59°   Ceiling: Unl
Heat Index: 59°   Visibility: 10mi
Dew Point: 23°   Wind: 8mph
Humidity: 25%   Direction: 280°W
Pressure: 29.74"   Gusts: NA
Location:  47.02°N, 91.67°W
Report Text: KTWM 250614Z AUTO 28007KT 241V301 10SM CLR 15/M05 A2974 RMK AO2
Loading
Personal Weather Stations






























Interactive Weather Map
Tropical Storm Tracking
New forecast layout! Learn more

10-Day Weather Forecast

Advertisements
Track Severe Weather on mobile